sensor_id;sensor_type;location;lat;lon;timestamp;P1;durP1;ratioP1;P2;durP2;ratioP2
16101;SDS011;56411;52.964;10.540;2023-07-02T00:01:55;16.38;;;9.80;;
16101;SDS011;56411;52.964;10.540;2023-07-02T00:04:22;16.70;;;9.30;;
16101;SDS011;56411;52.964;10.540;2023-07-02T00:06:50;15.20;;;9.38;;
16101;SDS011;56411;52.964;10.540;2023-07-02T00:09:18;17.48;;;8.45;;
16101;SDS011;56411;52.964;10.540;2023-07-02T00:11:45;15.68;;;9.18;;
16101;SDS011;56411;52.964;10.540;2023-07-02T00:14:12;13.85;;;8.55;;
16101;SDS011;56411;52.964;10.540;2023-07-02T00:16:42;14.13;;;8.55;;
16101;SDS011;56411;52.964;10.540;2023-07-02T00:19:10;14.18;;;8.40;;
16101;SDS011;56411;52.964;10.540;2023-07-02T00:21:38;13.13;;;8.35;;
16101;SDS011;56411;52.964;10.540;2023-07-02T00:24:07;15.25;;;8.90;;
16101;SDS011;56411;52.964;10.540;2023-07-02T00:26:35;14.70;;;8.57;;
16101;SDS011;56411;52.964;10.540;2023-07-02T00:29:03;13.15;;;8.32;;
16101;SDS011;56411;52.964;10.540;2023-07-02T00:31:31;14.05;;;8.18;;
16101;SDS011;56411;52.964;10.540;2023-07-02T00:33:58;14.52;;;8.75;;
16101;SDS011;56411;52.964;10.540;2023-07-02T00:36:27;14.35;;;8.65;;
16101;SDS011;56411;52.964;10.540;2023-07-02T00:38:54;14.43;;;8.60;;
16101;SDS011;56411;52.964;10.540;2023-07-02T00:41:23;15.93;;;8.57;;
16101;SDS011;56411;52.964;10.540;2023-07-02T00:43:50;15.73;;;9.25;;
16101;SDS011;56411;52.964;10.540;2023-07-02T00:46:20;14.43;;;8.32;;
16101;SDS011;56411;52.964;10.540;2023-07-02T00:48:48;16.52;;;8.38;;
16101;SDS011;56411;52.964;10.540;2023-07-02T00:51:17;13.73;;;8.43;;
16101;SDS011;56411;52.964;10.540;2023-07-02T00:53:44;15.13;;;8.00;;
16101;SDS011;56411;52.964;10.540;2023-07-02T00:56:12;13.38;;;8.07;;
16101;SDS011;56411;52.964;10.540;2023-07-02T00:58:41;13.38;;;8.10;;
16101;SDS011;56411;52.964;10.540;2023-07-02T01:01:12;14.43;;;8.30;;
16101;SDS011;56411;52.964;10.540;2023-07-02T01:03:49;16.13;;;8.40;;
16101;SDS011;56411;52.964;10.540;2023-07-02T01:06:18;14.73;;;8.35;;
16101;SDS011;56411;52.964;10.540;2023-07-02T01:08:50;17.88;;;9.20;;
16101;SDS011;56411;52.964;10.540;2023-07-02T01:11:19;15.82;;;8.23;;
16101;SDS011;56411;52.964;10.540;2023-07-02T01:13:52;16.35;;;8.43;;
16101;SDS011;56411;52.964;10.540;2023-07-02T01:16:21;14.73;;;8.68;;
16101;SDS011;56411;52.964;10.540;2023-07-02T01:18:49;15.85;;;7.78;;
16101;SDS011;56411;52.964;10.540;2023-07-02T01:21:20;16.98;;;8.82;;
16101;SDS011;56411;52.964;10.540;2023-07-02T01:23:49;16.45;;;8.88;;
16101;SDS011;56411;52.964;10.540;2023-07-02T01:26:16;14.60;;;8.73;;
16101;SDS011;56411;52.964;10.540;2023-07-02T01:28:43;17.60;;;9.27;;
16101;SDS011;56411;52.964;10.540;2023-07-02T01:31:11;16.65;;;9.70;;
16101;SDS011;56411;52.964;10.540;2023-07-02T01:33:38;15.48;;;9.32;;
16101;SDS011;56411;52.964;10.540;2023-07-02T01:36:05;17.63;;;9.95;;
16101;SDS011;56411;52.964;10.540;2023-07-02T01:38:34;21.92;;;10.07;;
16101;SDS011;56411;52.964;10.540;2023-07-02T01:41:01;17.08;;;10.15;;
16101;SDS011;56411;52.964;10.540;2023-07-02T01:43:28;17.05;;;10.23;;
16101;SDS011;56411;52.964;10.540;2023-07-02T01:45:56;15.90;;;10.68;;
16101;SDS011;56411;52.964;10.540;2023-07-02T01:48:24;17.08;;;11.02;;
16101;SDS011;56411;52.964;10.540;2023-07-02T01:50:51;20.45;;;10.52;;
16101;SDS011;56411;52.964;10.540;2023-07-02T01:53:18;18.40;;;10.30;;
16101;SDS011;56411;52.964;10.540;2023-07-02T01:55:46;17.17;;;10.10;;
16101;SDS011;56411;52.964;10.540;2023-07-02T01:58:14;18.10;;;10.13;;
16101;SDS011;56411;52.964;10.540;2023-07-02T02:00:41;17.05;;;10.30;;
16101;SDS011;56411;52.964;10.540;2023-07-02T02:03:08;17.02;;;9.98;;
16101;SDS011;56411;52.964;10.540;2023-07-02T02:05:35;18.73;;;10.38;;
16101;SDS011;56411;52.964;10.540;2023-07-02T02:08:02;18.08;;;9.77;;
16101;SDS011;56411;52.964;10.540;2023-07-02T02:10:29;15.98;;;9.95;;
16101;SDS011;56411;52.964;10.540;2023-07-02T02:12:58;16.10;;;9.40;;
16101;SDS011;56411;52.964;10.540;2023-07-02T02:15:25;17.45;;;9.98;;
16101;SDS011;56411;52.964;10.540;2023-07-02T02:17:52;17.77;;;9.93;;
16101;SDS011;56411;52.964;10.540;2023-07-02T02:20:20;16.60;;;10.00;;
16101;SDS011;56411;52.964;10.540;2023-07-02T02:22:46;16.65;;;10.20;;
16101;SDS011;56411;52.964;10.540;2023-07-02T02:25:14;16.65;;;9.38;;
16101;SDS011;56411;52.964;10.540;2023-07-02T02:27:41;17.08;;;9.93;;
16101;SDS011;56411;52.964;10.540;2023-07-02T02:30:11;16.83;;;9.50;;
16101;SDS011;56411;52.964;10.540;2023-07-02T02:32:38;17.38;;;9.45;;
16101;SDS011;56411;52.964;10.540;2023-07-02T02:35:05;15.60;;;8.77;;
16101;SDS011;56411;52.964;10.540;2023-07-02T02:37:34;12.82;;;8.52;;
16101;SDS011;56411;52.964;10.540;2023-07-02T02:40:02;15.77;;;8.95;;
16101;SDS011;56411;52.964;10.540;2023-07-02T02:42:30;15.23;;;9.00;;
16101;SDS011;56411;52.964;10.540;2023-07-02T02:44:57;15.40;;;8.43;;
16101;SDS011;56411;52.964;10.540;2023-07-02T02:47:26;16.98;;;9.07;;
16101;SDS011;56411;52.964;10.540;2023-07-02T02:49:53;14.25;;;8.45;;
16101;SDS011;56411;52.964;10.540;2023-07-02T02:52:19;15.65;;;8.38;;
16101;SDS011;56411;52.964;10.540;2023-07-02T02:54:49;15.95;;;8.50;;
16101;SDS011;56411;52.964;10.540;2023-07-02T02:57:18;15.07;;;8.60;;
16101;SDS011;56411;52.964;10.540;2023-07-02T02:59:44;14.52;;;8.82;;
16101;SDS011;56411;52.964;10.540;2023-07-02T03:02:12;13.48;;;8.18;;
16101;SDS011;56411;52.964;10.540;2023-07-02T03:04:41;15.48;;;8.00;;
16101;SDS011;56411;52.964;10.540;2023-07-02T03:07:09;15.75;;;8.35;;
16101;SDS011;56411;52.964;10.540;2023-07-02T03:09:36;15.23;;;8.27;;
16101;SDS011;56411;52.964;10.540;2023-07-02T03:12:03;16.00;;;8.57;;
16101;SDS011;56411;52.964;10.540;2023-07-02T03:14:31;15.45;;;8.15;;
16101;SDS011;56411;52.964;10.540;2023-07-02T03:16:57;14.52;;;7.75;;
16101;SDS011;56411;52.964;10.540;2023-07-02T03:19:24;14.07;;;7.72;;
16101;SDS011;56411;52.964;10.540;2023-07-02T03:21:53;13.52;;;7.03;;
16101;SDS011;56411;52.964;10.540;2023-07-02T03:24:20;15.40;;;7.70;;
16101;SDS011;56411;52.964;10.540;2023-07-02T03:26:47;16.20;;;7.35;;
16101;SDS011;56411;52.964;10.540;2023-07-02T03:29:14;12.60;;;6.90;;
16101;SDS011;56411;52.964;10.540;2023-07-02T03:31:41;12.38;;;7.00;;
16101;SDS011;56411;52.964;10.540;2023-07-02T03:34:09;15.90;;;7.25;;
16101;SDS011;56411;52.964;10.540;2023-07-02T03:36:36;16.02;;;6.93;;
16101;SDS011;56411;52.964;10.540;2023-07-02T03:39:04;15.65;;;7.05;;
16101;SDS011;56411;52.964;10.540;2023-07-02T03:41:31;16.33;;;6.60;;
16101;SDS011;56411;52.964;10.540;2023-07-02T03:43:58;14.57;;;6.70;;
16101;SDS011;56411;52.964;10.540;2023-07-02T03:46:25;14.57;;;7.38;;
16101;SDS011;56411;52.964;10.540;2023-07-02T03:48:52;16.58;;;7.05;;
16101;SDS011;56411;52.964;10.540;2023-07-02T03:51:19;14.52;;;6.97;;
16101;SDS011;56411;52.964;10.540;2023-07-02T03:53:46;15.63;;;6.72;;
16101;SDS011;56411;52.964;10.540;2023-07-02T03:56:15;16.00;;;6.70;;
16101;SDS011;56411;52.964;10.540;2023-07-02T03:58:42;14.55;;;6.03;;
16101;SDS011;56411;52.964;10.540;2023-07-02T04:01:09;12.75;;;6.90;;
16101;SDS011;56411;52.964;10.540;2023-07-02T04:03:36;14.80;;;6.75;;
16101;SDS011;56411;52.964;10.540;2023-07-02T04:06:03;15.00;;;6.32;;
16101;SDS011;56411;52.964;10.540;2023-07-02T04:08:31;13.90;;;6.13;;
16101;SDS011;56411;52.964;10.540;2023-07-02T04:10:59;17.45;;;6.40;;
16101;SDS011;56411;52.964;10.540;2023-07-02T04:13:27;15.82;;;6.18;;
16101;SDS011;56411;52.964;10.540;2023-07-02T04:15:54;14.55;;;6.30;;
16101;SDS011;56411;52.964;10.540;2023-07-02T04:18:22;15.85;;;5.88;;
16101;SDS011;56411;52.964;10.540;2023-07-02T04:20:49;14.40;;;6.25;;
16101;SDS011;56411;52.964;10.540;2023-07-02T04:23:16;16.42;;;5.80;;
16101;SDS011;56411;52.964;10.540;2023-07-02T04:25:43;14.43;;;5.78;;
16101;SDS011;56411;52.964;10.540;2023-07-02T04:28:10;14.32;;;5.78;;
16101;SDS011;56411;52.964;10.540;2023-07-02T04:30:38;15.63;;;6.28;;
16101;SDS011;56411;52.964;10.540;2023-07-02T04:33:07;16.58;;;6.60;;
16101;SDS011;56411;52.964;10.540;2023-07-02T04:35:34;15.18;;;6.45;;
16101;SDS011;56411;52.964;10.540;2023-07-02T04:38:01;14.27;;;5.88;;
16101;SDS011;56411;52.964;10.540;2023-07-02T04:40:28;13.18;;;5.82;;
16101;SDS011;56411;52.964;10.540;2023-07-02T04:42:55;13.52;;;5.90;;
16101;SDS011;56411;52.964;10.540;2023-07-02T04:45:23;14.57;;;6.13;;
16101;SDS011;56411;52.964;10.540;2023-07-02T04:47:53;15.50;;;5.90;;
16101;SDS011;56411;52.964;10.540;2023-07-02T04:50:20;15.05;;;6.35;;
16101;SDS011;56411;52.964;10.540;2023-07-02T04:52:47;16.20;;;6.38;;
16101;SDS011;56411;52.964;10.540;2023-07-02T04:55:14;14.65;;;6.15;;
16101;SDS011;56411;52.964;10.540;2023-07-02T04:57:41;16.45;;;6.32;;
16101;SDS011;56411;52.964;10.540;2023-07-02T05:00:09;16.55;;;6.63;;
16101;SDS011;56411;52.964;10.540;2023-07-02T05:02:38;13.35;;;6.72;;
16101;SDS011;56411;52.964;10.540;2023-07-02T05:05:07;15.55;;;6.55;;
16101;SDS011;56411;52.964;10.540;2023-07-02T05:07:34;14.40;;;6.45;;
16101;SDS011;56411;52.964;10.540;2023-07-02T05:10:01;13.77;;;6.45;;
16101;SDS011;56411;52.964;10.540;2023-07-02T05:12:28;15.77;;;6.93;;
16101;SDS011;56411;52.964;10.540;2023-07-02T05:14:55;13.48;;;6.53;;
16101;SDS011;56411;52.964;10.540;2023-07-02T05:17:22;13.27;;;6.05;;
16101;SDS011;56411;52.964;10.540;2023-07-02T05:19:49;14.38;;;6.68;;
16101;SDS011;56411;52.964;10.540;2023-07-02T05:22:18;15.70;;;6.80;;
16101;SDS011;56411;52.964;10.540;2023-07-02T05:24:45;15.18;;;7.18;;
16101;SDS011;56411;52.964;10.540;2023-07-02T05:27:12;17.15;;;6.95;;
16101;SDS011;56411;52.964;10.540;2023-07-02T05:29:39;13.80;;;6.88;;
16101;SDS011;56411;52.964;10.540;2023-07-02T05:32:06;15.10;;;7.25;;
16101;SDS011;56411;52.964;10.540;2023-07-02T05:34:33;16.75;;;7.40;;
16101;SDS011;56411;52.964;10.540;2023-07-02T05:37:00;14.23;;;7.28;;
16101;SDS011;56411;52.964;10.540;2023-07-02T05:39:29;18.95;;;7.38;;
16101;SDS011;56411;52.964;10.540;2023-07-02T05:41:56;16.58;;;7.15;;
16101;SDS011;56411;52.964;10.540;2023-07-02T05:44:23;15.57;;;6.93;;
16101;SDS011;56411;52.964;10.540;2023-07-02T05:46:49;14.88;;;7.18;;
16101;SDS011;56411;52.964;10.540;2023-07-02T05:49:16;14.43;;;6.60;;
16101;SDS011;56411;52.964;10.540;2023-07-02T05:51:43;16.55;;;6.78;;
16101;SDS011;56411;52.964;10.540;2023-07-02T05:54:10;16.27;;;6.50;;
16101;SDS011;56411;52.964;10.540;2023-07-02T05:56:39;16.63;;;6.78;;
16101;SDS011;56411;52.964;10.540;2023-07-02T05:59:06;16.60;;;7.20;;
16101;SDS011;56411;52.964;10.540;2023-07-02T06:01:33;14.60;;;6.68;;
16101;SDS011;56411;52.964;10.540;2023-07-02T06:04:00;17.48;;;7.38;;
16101;SDS011;56411;52.964;10.540;2023-07-02T06:06:27;16.00;;;6.78;;
16101;SDS011;56411;52.964;10.540;2023-07-02T06:08:53;16.60;;;7.13;;
16101;SDS011;56411;52.964;10.540;2023-07-02T06:11:20;17.52;;;6.57;;
16101;SDS011;56411;52.964;10.540;2023-07-02T06:13:49;17.73;;;6.40;;
16101;SDS011;56411;52.964;10.540;2023-07-02T06:16:16;14.45;;;6.70;;
16101;SDS011;56411;52.964;10.540;2023-07-02T06:18:43;16.67;;;6.63;;
16101;SDS011;56411;52.964;10.540;2023-07-02T06:21:10;18.08;;;6.28;;
16101;SDS011;56411;52.964;10.540;2023-07-02T06:23:40;14.57;;;6.03;;
16101;SDS011;56411;52.964;10.540;2023-07-02T06:26:10;14.98;;;6.35;;
16101;SDS011;56411;52.964;10.540;2023-07-02T06:28:37;18.52;;;6.55;;
16101;SDS011;56411;52.964;10.540;2023-07-02T06:31:06;17.35;;;6.50;;
16101;SDS011;56411;52.964;10.540;2023-07-02T06:33:33;15.65;;;6.63;;
16101;SDS011;56411;52.964;10.540;2023-07-02T06:36:08;17.15;;;6.30;;
16101;SDS011;56411;52.964;10.540;2023-07-02T06:38:35;14.52;;;6.20;;
16101;SDS011;56411;52.964;10.540;2023-07-02T06:41:03;14.30;;;6.15;;
16101;SDS011;56411;52.964;10.540;2023-07-02T06:43:30;16.83;;;6.20;;
16101;SDS011;56411;52.964;10.540;2023-07-02T06:45:57;17.45;;;6.43;;
16101;SDS011;56411;52.964;10.540;2023-07-02T06:48:25;16.90;;;6.85;;
16101;SDS011;56411;52.964;10.540;2023-07-02T06:50:52;15.95;;;6.47;;
16101;SDS011;56411;52.964;10.540;2023-07-02T06:53:19;18.30;;;6.50;;
16101;SDS011;56411;52.964;10.540;2023-07-02T06:55:46;17.50;;;6.10;;
16101;SDS011;56411;52.964;10.540;2023-07-02T06:58:13;15.95;;;6.47;;
16101;SDS011;56411;52.964;10.540;2023-07-02T07:00:40;17.58;;;5.97;;
16101;SDS011;56411;52.964;10.540;2023-07-02T07:03:07;14.70;;;6.38;;
16101;SDS011;56411;52.964;10.540;2023-07-02T07:05:36;20.55;;;6.68;;
16101;SDS011;56411;52.964;10.540;2023-07-02T07:08:03;18.10;;;6.53;;
16101;SDS011;56411;52.964;10.540;2023-07-02T07:10:30;13.30;;;6.25;;
16101;SDS011;56411;52.964;10.540;2023-07-02T07:12:59;19.20;;;6.70;;
16101;SDS011;56411;52.964;10.540;2023-07-02T07:15:29;17.85;;;6.65;;
16101;SDS011;56411;52.964;10.540;2023-07-02T07:17:59;15.23;;;6.22;;
16101;SDS011;56411;52.964;10.540;2023-07-02T07:20:26;18.55;;;6.72;;
16101;SDS011;56411;52.964;10.540;2023-07-02T07:22:54;19.08;;;7.00;;
16101;SDS011;56411;52.964;10.540;2023-07-02T07:25:21;21.63;;;7.50;;
16101;SDS011;56411;52.964;10.540;2023-07-02T07:27:51;21.88;;;6.60;;
16101;SDS011;56411;52.964;10.540;2023-07-02T07:30:18;19.58;;;7.20;;
16101;SDS011;56411;52.964;10.540;2023-07-02T07:32:48;21.90;;;7.53;;
16101;SDS011;56411;52.964;10.540;2023-07-02T07:35:16;20.35;;;7.20;;
16101;SDS011;56411;52.964;10.540;2023-07-02T07:37:43;20.70;;;7.07;;
16101;SDS011;56411;52.964;10.540;2023-07-02T07:40:12;16.92;;;6.57;;
16101;SDS011;56411;52.964;10.540;2023-07-02T07:42:39;18.40;;;6.88;;
16101;SDS011;56411;52.964;10.540;2023-07-02T07:45:07;19.40;;;6.82;;
16101;SDS011;56411;52.964;10.540;2023-07-02T07:47:35;19.60;;;6.88;;
16101;SDS011;56411;52.964;10.540;2023-07-02T07:50:03;16.48;;;6.65;;
16101;SDS011;56411;52.964;10.540;2023-07-02T07:52:35;19.42;;;6.95;;
16101;SDS011;56411;52.964;10.540;2023-07-02T07:55:02;15.55;;;6.82;;
16101;SDS011;56411;52.964;10.540;2023-07-02T07:57:31;17.55;;;6.88;;
16101;SDS011;56411;52.964;10.540;2023-07-02T07:59:58;20.33;;;7.57;;
16101;SDS011;56411;52.964;10.540;2023-07-02T08:02:25;19.88;;;7.22;;
16101;SDS011;56411;52.964;10.540;2023-07-02T08:04:52;18.90;;;7.50;;
16101;SDS011;56411;52.964;10.540;2023-07-02T08:07:19;17.52;;;7.25;;
16101;SDS011;56411;52.964;10.540;2023-07-02T08:09:46;15.93;;;7.07;;
16101;SDS011;56411;52.964;10.540;2023-07-02T08:12:14;18.13;;;7.07;;
16101;SDS011;56411;52.964;10.540;2023-07-02T08:14:42;18.17;;;7.03;;
16101;SDS011;56411;52.964;10.540;2023-07-02T08:17:09;18.48;;;7.07;;
16101;SDS011;56411;52.964;10.540;2023-07-02T08:19:36;18.45;;;7.30;;
16101;SDS011;56411;52.964;10.540;2023-07-02T08:22:03;16.70;;;6.93;;
16101;SDS011;56411;52.964;10.540;2023-07-02T08:24:31;19.00;;;7.47;;
16101;SDS011;56411;52.964;10.540;2023-07-02T08:26:58;17.27;;;7.07;;
16101;SDS011;56411;52.964;10.540;2023-07-02T08:29:27;17.67;;;7.35;;
16101;SDS011;56411;52.964;10.540;2023-07-02T08:31:56;18.40;;;7.10;;
16101;SDS011;56411;52.964;10.540;2023-07-02T08:34:23;21.55;;;6.97;;
16101;SDS011;56411;52.964;10.540;2023-07-02T08:36:50;18.13;;;7.28;;
16101;SDS011;56411;52.964;10.540;2023-07-02T08:39:17;17.67;;;7.15;;
16101;SDS011;56411;52.964;10.540;2023-07-02T08:41:45;18.70;;;7.47;;
16101;SDS011;56411;52.964;10.540;2023-07-02T08:44:12;16.52;;;6.85;;
16101;SDS011;56411;52.964;10.540;2023-07-02T08:46:40;18.77;;;7.78;;
16101;SDS011;56411;52.964;10.540;2023-07-02T08:49:09;21.05;;;7.93;;
16101;SDS011;56411;52.964;10.540;2023-07-02T08:51:37;16.85;;;7.00;;
16101;SDS011;56411;52.964;10.540;2023-07-02T08:54:04;17.63;;;7.43;;
16101;SDS011;56411;52.964;10.540;2023-07-02T08:56:34;21.45;;;7.63;;
16101;SDS011;56411;52.964;10.540;2023-07-02T08:59:01;19.20;;;7.80;;
16101;SDS011;56411;52.964;10.540;2023-07-02T09:01:28;18.50;;;7.35;;
16101;SDS011;56411;52.964;10.540;2023-07-02T09:03:58;17.42;;;7.80;;
16101;SDS011;56411;52.964;10.540;2023-07-02T09:06:27;19.08;;;7.68;;
16101;SDS011;56411;52.964;10.540;2023-07-02T09:09:03;18.55;;;7.55;;
16101;SDS011;56411;52.964;10.540;2023-07-02T09:11:33;19.00;;;7.22;;
16101;SDS011;56411;52.964;10.540;2023-07-02T09:14:00;19.25;;;7.43;;
16101;SDS011;56411;52.964;10.540;2023-07-02T09:16:29;22.85;;;8.38;;
16101;SDS011;56411;52.964;10.540;2023-07-02T09:18:58;17.42;;;6.80;;
16101;SDS011;56411;52.964;10.540;2023-07-02T09:21:37;16.98;;;7.65;;
16101;SDS011;56411;52.964;10.540;2023-07-02T09:24:11;16.38;;;6.47;;
16101;SDS011;56411;52.964;10.540;2023-07-02T09:26:41;16.25;;;6.38;;
16101;SDS011;56411;52.964;10.540;2023-07-02T09:29:09;15.70;;;6.68;;
16101;SDS011;56411;52.964;10.540;2023-07-02T09:31:43;17.38;;;6.97;;
16101;SDS011;56411;52.964;10.540;2023-07-02T09:34:11;17.17;;;6.45;;
16101;SDS011;56411;52.964;10.540;2023-07-02T09:36:40;18.83;;;7.55;;
16101;SDS011;56411;52.964;10.540;2023-07-02T09:39:10;17.80;;;6.93;;
16101;SDS011;56411;52.964;10.540;2023-07-02T09:41:38;18.00;;;6.53;;
16101;SDS011;56411;52.964;10.540;2023-07-02T09:44:07;16.58;;;6.45;;
16101;SDS011;56411;52.964;10.540;2023-07-02T09:46:36;15.40;;;6.10;;
16101;SDS011;56411;52.964;10.540;2023-07-02T09:49:08;16.73;;;6.70;;
16101;SDS011;56411;52.964;10.540;2023-07-02T09:51:41;17.00;;;6.18;;
16101;SDS011;56411;52.964;10.540;2023-07-02T09:54:09;15.55;;;6.10;;
16101;SDS011;56411;52.964;10.540;2023-07-02T09:56:37;17.00;;;6.32;;
16101;SDS011;56411;52.964;10.540;2023-07-02T09:59:06;16.38;;;6.43;;
16101;SDS011;56411;52.964;10.540;2023-07-02T10:01:33;16.65;;;5.45;;
16101;SDS011;56411;52.964;10.540;2023-07-02T10:04:09;14.13;;;6.00;;
16101;SDS011;56411;52.964;10.540;2023-07-02T10:06:48;15.95;;;6.28;;
16101;SDS011;56411;52.964;10.540;2023-07-02T10:09:16;14.70;;;5.68;;
16101;SDS011;56411;52.964;10.540;2023-07-02T10:11:43;15.18;;;5.85;;
16101;SDS011;56411;52.964;10.540;2023-07-02T10:14:10;17.17;;;6.60;;
16101;SDS011;56411;52.964;10.540;2023-07-02T10:19:20;14.90;;;6.30;;
16101;SDS011;56411;52.964;10.540;2023-07-02T10:22:01;20.92;;;6.70;;
16101;SDS011;56411;52.964;10.540;2023-07-02T10:24:29;18.52;;;6.70;;
16101;SDS011;56411;52.964;10.540;2023-07-02T10:26:56;15.93;;;6.85;;
16101;SDS011;56411;52.964;10.540;2023-07-02T10:29:24;13.90;;;6.20;;
16101;SDS011;56411;52.964;10.540;2023-07-02T10:31:56;19.77;;;6.80;;
16101;SDS011;56411;52.964;10.540;2023-07-02T10:34:30;15.18;;;6.25;;
16101;SDS011;56411;52.964;10.540;2023-07-02T10:36:59;16.73;;;6.15;;
16101;SDS011;56411;52.964;10.540;2023-07-02T10:39:28;15.60;;;6.20;;
16101;SDS011;56411;52.964;10.540;2023-07-02T10:42:05;17.13;;;6.03;;
16101;SDS011;56411;52.964;10.540;2023-07-02T10:44:32;15.80;;;6.40;;
16101;SDS011;56411;52.964;10.540;2023-07-02T10:47:17;14.18;;;5.68;;
16101;SDS011;56411;52.964;10.540;2023-07-02T10:49:45;15.90;;;6.45;;
16101;SDS011;56411;52.964;10.540;2023-07-02T10:52:13;15.32;;;5.95;;
16101;SDS011;56411;52.964;10.540;2023-07-02T10:54:41;18.08;;;7.13;;
16101;SDS011;56411;52.964;10.540;2023-07-02T10:57:09;15.13;;;7.18;;
16101;SDS011;56411;52.964;10.540;2023-07-02T10:59:39;18.90;;;6.97;;
16101;SDS011;56411;52.964;10.540;2023-07-02T11:02:07;16.50;;;6.30;;
16101;SDS011;56411;52.964;10.540;2023-07-02T11:04:35;17.85;;;6.90;;
16101;SDS011;56411;52.964;10.540;2023-07-02T11:07:03;16.05;;;6.10;;
16101;SDS011;56411;52.964;10.540;2023-07-02T11:09:32;15.80;;;6.15;;
16101;SDS011;56411;52.964;10.540;2023-07-02T11:11:59;14.75;;;6.13;;
16101;SDS011;56411;52.964;10.540;2023-07-02T11:14:27;14.45;;;5.78;;
16101;SDS011;56411;52.964;10.540;2023-07-02T11:16:55;15.05;;;5.97;;
16101;SDS011;56411;52.964;10.540;2023-07-02T11:19:23;16.85;;;5.95;;
16101;SDS011;56411;52.964;10.540;2023-07-02T11:21:50;13.43;;;5.80;;
16101;SDS011;56411;52.964;10.540;2023-07-02T11:24:26;16.83;;;6.20;;
16101;SDS011;56411;52.964;10.540;2023-07-02T11:26:55;15.10;;;6.05;;
16101;SDS011;56411;52.964;10.540;2023-07-02T11:29:23;16.38;;;5.88;;
16101;SDS011;56411;52.964;10.540;2023-07-02T11:31:53;15.75;;;6.15;;
16101;SDS011;56411;52.964;10.540;2023-07-02T11:34:21;15.50;;;6.00;;
16101;SDS011;56411;52.964;10.540;2023-07-02T11:36:50;17.83;;;6.78;;
16101;SDS011;56411;52.964;10.540;2023-07-02T11:39:19;13.82;;;5.60;;
16101;SDS011;56411;52.964;10.540;2023-07-02T11:41:47;15.98;;;5.70;;
16101;SDS011;56411;52.964;10.540;2023-07-02T11:44:16;15.95;;;6.10;;
16101;SDS011;56411;52.964;10.540;2023-07-02T11:46:44;14.60;;;6.13;;
16101;SDS011;56411;52.964;10.540;2023-07-02T11:49:12;15.75;;;6.47;;
16101;SDS011;56411;52.964;10.540;2023-07-02T11:51:39;14.90;;;6.15;;
16101;SDS011;56411;52.964;10.540;2023-07-02T11:54:11;17.70;;;6.70;;
16101;SDS011;56411;52.964;10.540;2023-07-02T11:56:39;14.25;;;5.65;;
16101;SDS011;56411;52.964;10.540;2023-07-02T11:59:13;18.77;;;6.50;;
16101;SDS011;56411;52.964;10.540;2023-07-02T12:01:42;16.17;;;6.93;;
16101;SDS011;56411;52.964;10.540;2023-07-02T12:04:10;15.00;;;6.60;;
16101;SDS011;56411;52.964;10.540;2023-07-02T12:06:38;18.88;;;6.57;;
16101;SDS011;56411;52.964;10.540;2023-07-02T12:09:05;14.85;;;6.28;;
16101;SDS011;56411;52.964;10.540;2023-07-02T12:11:35;15.80;;;6.55;;
16101;SDS011;56411;52.964;10.540;2023-07-02T12:14:02;15.27;;;6.95;;
16101;SDS011;56411;52.964;10.540;2023-07-02T12:16:30;17.20;;;6.60;;
16101;SDS011;56411;52.964;10.540;2023-07-02T12:18:58;15.35;;;6.80;;
16101;SDS011;56411;52.964;10.540;2023-07-02T12:21:26;18.75;;;6.72;;
16101;SDS011;56411;52.964;10.540;2023-07-02T12:23:53;15.95;;;6.30;;
16101;SDS011;56411;52.964;10.540;2023-07-02T12:26:20;15.50;;;6.50;;
16101;SDS011;56411;52.964;10.540;2023-07-02T12:28:47;17.15;;;6.38;;
16101;SDS011;56411;52.964;10.540;2023-07-02T12:31:14;16.48;;;6.65;;
16101;SDS011;56411;52.964;10.540;2023-07-02T12:33:41;14.32;;;6.07;;
16101;SDS011;56411;52.964;10.540;2023-07-02T12:36:10;14.95;;;6.20;;
16101;SDS011;56411;52.964;10.540;2023-07-02T12:38:39;13.50;;;6.10;;
16101;SDS011;56411;52.964;10.540;2023-07-02T12:41:06;13.23;;;5.50;;
16101;SDS011;56411;52.964;10.540;2023-07-02T12:43:33;14.35;;;5.30;;
16101;SDS011;56411;52.964;10.540;2023-07-02T12:46:00;11.90;;;5.50;;
16101;SDS011;56411;52.964;10.540;2023-07-02T12:48:30;14.32;;;5.43;;
16101;SDS011;56411;52.964;10.540;2023-07-02T12:50:58;14.98;;;5.50;;
16101;SDS011;56411;52.964;10.540;2023-07-02T12:53:27;20.98;;;10.93;;
16101;SDS011;56411;52.964;10.540;2023-07-02T12:55:59;15.13;;;5.45;;
16101;SDS011;56411;52.964;10.540;2023-07-02T12:58:27;14.38;;;5.75;;
16101;SDS011;56411;52.964;10.540;2023-07-02T13:00:54;14.23;;;5.80;;
16101;SDS011;56411;52.964;10.540;2023-07-02T13:03:21;13.93;;;6.00;;
16101;SDS011;56411;52.964;10.540;2023-07-02T13:05:50;14.73;;;5.32;;
16101;SDS011;56411;52.964;10.540;2023-07-02T13:08:17;14.88;;;5.53;;
16101;SDS011;56411;52.964;10.540;2023-07-02T13:10:46;15.07;;;5.00;;
16101;SDS011;56411;52.964;10.540;2023-07-02T13:13:13;14.15;;;4.80;;
16101;SDS011;56411;52.964;10.540;2023-07-02T13:15:40;13.45;;;5.05;;
16101;SDS011;56411;52.964;10.540;2023-07-02T13:18:07;17.92;;;5.60;;
16101;SDS011;56411;52.964;10.540;2023-07-02T13:20:34;16.95;;;5.30;;
16101;SDS011;56411;52.964;10.540;2023-07-02T13:23:02;15.30;;;5.25;;
16101;SDS011;56411;52.964;10.540;2023-07-02T13:25:30;12.07;;;5.20;;
16101;SDS011;56411;52.964;10.540;2023-07-02T13:27:59;11.65;;;4.90;;
16101;SDS011;56411;52.964;10.540;2023-07-02T13:30:26;13.02;;;4.95;;
16101;SDS011;56411;52.964;10.540;2023-07-02T13:32:53;12.93;;;4.70;;
16101;SDS011;56411;52.964;10.540;2023-07-02T13:35:20;12.32;;;4.85;;
16101;SDS011;56411;52.964;10.540;2023-07-02T13:37:48;14.77;;;4.43;;
16101;SDS011;56411;52.964;10.540;2023-07-02T13:40:15;10.95;;;4.60;;
16101;SDS011;56411;52.964;10.540;2023-07-02T13:42:42;14.10;;;4.68;;
16101;SDS011;56411;52.964;10.540;2023-07-02T13:45:11;11.25;;;4.00;;
16101;SDS011;56411;52.964;10.540;2023-07-02T13:47:38;14.95;;;4.53;;
16101;SDS011;56411;52.964;10.540;2023-07-02T13:50:06;13.88;;;4.53;;
16101;SDS011;56411;52.964;10.540;2023-07-02T13:52:33;9.93;;;4.30;;
16101;SDS011;56411;52.964;10.540;2023-07-02T13:55:01;11.48;;;4.20;;
16101;SDS011;56411;52.964;10.540;2023-07-02T13:57:28;11.75;;;4.13;;
16101;SDS011;56411;52.964;10.540;2023-07-02T13:59:57;11.27;;;4.55;;
16101;SDS011;56411;52.964;10.540;2023-07-02T14:02:24;12.02;;;4.40;;
16101;SDS011;56411;52.964;10.540;2023-07-02T14:04:51;11.13;;;4.63;;
16101;SDS011;56411;52.964;10.540;2023-07-02T14:07:18;14.38;;;5.15;;
16101;SDS011;56411;52.964;10.540;2023-07-02T14:09:46;14.82;;;5.60;;
16101;SDS011;56411;52.964;10.540;2023-07-02T14:15:05;13.05;;;5.30;;
16101;SDS011;56411;52.964;10.540;2023-07-02T14:17:35;12.00;;;4.78;;
16101;SDS011;56411;52.964;10.540;2023-07-02T14:20:02;12.63;;;5.00;;
16101;SDS011;56411;52.964;10.540;2023-07-02T14:22:31;12.82;;;5.05;;
16101;SDS011;56411;52.964;10.540;2023-07-02T14:24:58;11.27;;;4.75;;
16101;SDS011;56411;52.964;10.540;2023-07-02T14:27:25;13.30;;;4.90;;
16101;SDS011;56411;52.964;10.540;2023-07-02T14:29:52;11.27;;;4.60;;
16101;SDS011;56411;52.964;10.540;2023-07-02T14:32:21;10.70;;;4.35;;